sensor_id;sensor_type;location;lat;lon;timestamp;pressure;altitude;pressure_sealevel;temperature;humidity
12077;BME280;12420;42.676;23.262;2023-10-08T00:01:44;95039.94;;;14.74;59.84
12077;BME280;12420;42.676;23.262;2023-10-08T00:04:11;95022.97;;;14.64;57.34
12077;BME280;12420;42.676;23.262;2023-10-08T00:06:44;95029.22;;;14.57;58.70
12077;BME280;12420;42.676;23.262;2023-10-08T00:09:10;95017.31;;;14.57;58.50
12077;BME280;12420;42.676;23.262;2023-10-08T00:11:40;95000.63;;;14.57;59.74
12077;BME280;12420;42.676;23.262;2023-10-08T00:14:08;95029.34;;;14.72;58.28
12077;BME280;12420;42.676;23.262;2023-10-08T00:16:36;95018.41;;;14.74;57.14
12077;BME280;12420;42.676;23.262;2023-10-08T00:19:06;95010.63;;;14.81;58.16
12077;BME280;12420;42.676;23.262;2023-10-08T00:21:40;95010.16;;;14.90;57.83
12077;BME280;12420;42.676;23.262;2023-10-08T00:24:10;94974.91;;;14.71;58.30
12077;BME280;12420;42.676;23.262;2023-10-08T00:26:37;95011.72;;;14.98;58.34
12077;BME280;12420;42.676;23.262;2023-10-08T00:29:07;94963.63;;;14.77;59.01
12077;BME280;12420;42.676;23.262;2023-10-08T00:31:41;94990.34;;;15.01;58.73
12077;BME280;12420;42.676;23.262;2023-10-08T00:34:12;94970.94;;;14.88;57.71
12077;BME280;12420;42.676;23.262;2023-10-08T00:36:40;94992.63;;;15.10;57.63
12077;BME280;12420;42.676;23.262;2023-10-08T00:39:08;94999.88;;;15.13;58.86
12077;BME280;12420;42.676;23.262;2023-10-08T00:41:41;94991.34;;;15.11;58.94
12077;BME280;12420;42.676;23.262;2023-10-08T00:44:08;94997.50;;;15.17;58.64
12077;BME280;12420;42.676;23.262;2023-10-08T00:46:38;94997.31;;;15.15;58.85
12077;BME280;12420;42.676;23.262;2023-10-08T00:49:08;94987.66;;;15.16;59.67
12077;BME280;12420;42.676;23.262;2023-10-08T00:51:52;94964.28;;;14.91;59.37
12077;BME280;12420;42.676;23.262;2023-10-08T00:54:43;95004.97;;;14.94;59.88
12077;BME280;12420;42.676;23.262;2023-10-08T00:57:25;94987.66;;;14.88;59.90
12077;BME280;12420;42.676;23.262;2023-10-08T00:59:52;94984.06;;;14.80;60.61
12077;BME280;12420;42.676;23.262;2023-10-08T01:02:19;94991.47;;;14.77;60.90
12077;BME280;12420;42.676;23.262;2023-10-08T01:04:51;94977.69;;;14.71;61.00
12077;BME280;12420;42.676;23.262;2023-10-08T01:07:21;94981.44;;;14.74;60.95
12077;BME280;12420;42.676;23.262;2023-10-08T01:09:49;94985.06;;;14.61;61.33
12077;BME280;12420;42.676;23.262;2023-10-08T01:12:18;94980.28;;;14.48;62.22
12077;BME280;12420;42.676;23.262;2023-10-08T01:14:48;94980.44;;;14.43;62.80
12077;BME280;12420;42.676;23.262;2023-10-08T01:17:19;94981.72;;;14.42;63.41
12077;BME280;12420;42.676;23.262;2023-10-08T01:19:50;94975.94;;;14.40;63.68
12077;BME280;12420;42.676;23.262;2023-10-08T01:22:23;94979.94;;;14.31;64.67
12077;BME280;12420;42.676;23.262;2023-10-08T01:24:53;94893.75;;;13.41;64.79
12077;BME280;12420;42.676;23.262;2023-10-08T01:27:20;94966.41;;;14.14;64.38
12077;BME280;12420;42.676;23.262;2023-10-08T01:29:50;94961.34;;;14.05;64.89
12077;BME280;12420;42.676;23.262;2023-10-08T01:32:17;94979.75;;;14.08;65.13
12077;BME280;12420;42.676;23.262;2023-10-08T01:34:44;94943.06;;;13.75;65.31
12077;BME280;12420;42.676;23.262;2023-10-08T01:37:13;94981.72;;;14.00;65.60
12077;BME280;12420;42.676;23.262;2023-10-08T01:39:43;94979.97;;;13.97;65.60
12077;BME280;12420;42.676;23.262;2023-10-08T01:42:11;94972.78;;;13.80;65.97
12077;BME280;12420;42.676;23.262;2023-10-08T01:44:44;94920.91;;;13.49;65.90
12077;BME280;12420;42.676;23.262;2023-10-08T01:47:12;94982.00;;;13.75;66.01
12077;BME280;12420;42.676;23.262;2023-10-08T01:49:41;94992.38;;;13.75;66.46
12077;BME280;12420;42.676;23.262;2023-10-08T01:52:10;94904.16;;;13.14;66.27
12077;BME280;12420;42.676;23.262;2023-10-08T01:54:45;94959.72;;;13.54;66.22
12077;BME280;12420;42.676;23.262;2023-10-08T01:57:12;94985.44;;;13.68;66.83
12077;BME280;12420;42.676;23.262;2023-10-08T01:59:40;94934.50;;;13.39;67.19
12077;BME280;12420;42.676;23.262;2023-10-08T02:02:07;94947.75;;;13.33;67.66
12077;BME280;12420;42.676;23.262;2023-10-08T02:04:33;94974.16;;;13.39;68.38
12077;BME280;12420;42.676;23.262;2023-10-08T02:07:01;94955.47;;;13.27;68.03
12077;BME280;12420;42.676;23.262;2023-10-08T02:09:33;94943.94;;;13.09;68.43
12077;BME280;12420;42.676;23.262;2023-10-08T02:12:01;94973.66;;;13.28;68.78
12077;BME280;12420;42.676;23.262;2023-10-08T02:14:29;94958.56;;;13.10;69.75
12077;BME280;12420;42.676;23.262;2023-10-08T02:16:57;94960.38;;;13.07;69.90
12077;BME280;12420;42.676;23.262;2023-10-08T02:19:26;94945.53;;;13.04;69.87
12077;BME280;12420;42.676;23.262;2023-10-08T02:21:53;94973.13;;;13.29;68.56
12077;BME280;12420;42.676;23.262;2023-10-08T02:24:21;94982.81;;;13.22;69.98
12077;BME280;12420;42.676;23.262;2023-10-08T02:26:51;94945.13;;;13.00;69.86
12077;BME280;12420;42.676;23.262;2023-10-08T02:29:20;94934.84;;;12.82;70.14
12077;BME280;12420;42.676;23.262;2023-10-08T02:31:47;94956.66;;;12.91;69.98
12077;BME280;12420;42.676;23.262;2023-10-08T02:34:14;94964.25;;;13.04;69.70
12077;BME280;12420;42.676;23.262;2023-10-08T02:36:41;94937.53;;;12.88;70.05
12077;BME280;12420;42.676;23.262;2023-10-08T02:39:08;94919.16;;;12.71;70.42
12077;BME280;12420;42.676;23.262;2023-10-08T02:41:43;94963.72;;;13.06;70.51
12077;BME280;12420;42.676;23.262;2023-10-08T02:44:12;94970.44;;;13.10;70.30
12077;BME280;12420;42.676;23.262;2023-10-08T02:46:42;94945.75;;;13.07;69.68
12077;BME280;12420;42.676;23.262;2023-10-08T02:49:10;94966.47;;;13.19;70.22
12077;BME280;12420;42.676;23.262;2023-10-08T02:51:45;94925.56;;;12.53;71.23
12077;BME280;12420;42.676;23.262;2023-10-08T02:54:11;94976.41;;;12.74;71.90
12077;BME280;12420;42.676;23.262;2023-10-08T02:56:44;94960.81;;;12.58;71.54
12077;BME280;12420;42.676;23.262;2023-10-08T02:59:12;94926.28;;;12.27;71.51
12077;BME280;12420;42.676;23.262;2023-10-08T03:01:40;94994.25;;;12.66;72.05
12077;BME280;12420;42.676;23.262;2023-10-08T03:04:07;94982.50;;;12.73;72.30
12077;BME280;12420;42.676;23.262;2023-10-08T03:06:43;94974.41;;;12.75;72.41
12077;BME280;12420;42.676;23.262;2023-10-08T03:09:10;94980.81;;;12.70;72.56
12077;BME280;12420;42.676;23.262;2023-10-08T03:11:39;94973.22;;;12.70;73.24
12077;BME280;12420;42.676;23.262;2023-10-08T03:14:12;94982.28;;;12.57;73.10
12077;BME280;12420;42.676;23.262;2023-10-08T03:16:49;94942.22;;;12.40;73.66
12077;BME280;12420;42.676;23.262;2023-10-08T03:19:17;94963.25;;;12.62;73.86
12077;BME280;12420;42.676;23.262;2023-10-08T03:21:46;94976.28;;;12.67;73.94
12077;BME280;12420;42.676;23.262;2023-10-08T03:24:20;94966.59;;;12.73;73.57
12077;BME280;12420;42.676;23.262;2023-10-08T03:27:03;94962.00;;;12.76;73.41
12077;BME280;12420;42.676;23.262;2023-10-08T03:29:41;94959.09;;;12.68;73.96
12077;BME280;12420;42.676;23.262;2023-10-08T03:32:11;94954.53;;;12.57;74.72
12077;BME280;12420;42.676;23.262;2023-10-08T03:34:44;94956.00;;;12.58;74.83
12077;BME280;12420;42.676;23.262;2023-10-08T03:37:12;94951.84;;;12.52;75.69
12077;BME280;12420;42.676;23.262;2023-10-08T03:39:45;94956.63;;;12.51;75.64
12077;BME280;12420;42.676;23.262;2023-10-08T03:42:26;94936.13;;;12.41;76.24
12077;BME280;12420;42.676;23.262;2023-10-08T03:44:59;94943.94;;;12.56;75.70
12077;BME280;12420;42.676;23.262;2023-10-08T03:47:37;94932.94;;;12.50;75.49
12077;BME280;12420;42.676;23.262;2023-10-08T03:50:05;94944.03;;;12.64;75.10
12077;BME280;12420;42.676;23.262;2023-10-08T03:52:36;94896.59;;;12.22;76.35
12077;BME280;12420;42.676;23.262;2023-10-08T03:55:04;94937.41;;;12.53;76.41
12077;BME280;12420;42.676;23.262;2023-10-08T03:57:32;94935.59;;;12.56;76.81
12077;BME280;12420;42.676;23.262;2023-10-08T04:00:09;94929.31;;;12.55;77.18
12077;BME280;12420;42.676;23.262;2023-10-08T04:02:40;94926.09;;;12.51;77.68
12077;BME280;12420;42.676;23.262;2023-10-08T04:05:11;94905.38;;;12.39;77.91
12077;BME280;12420;42.676;23.262;2023-10-08T04:07:45;94890.94;;;12.27;77.37
12077;BME280;12420;42.676;23.262;2023-10-08T04:10:41;94918.94;;;12.56;77.04
12077;BME280;12420;42.676;23.262;2023-10-08T04:13:33;94922.78;;;12.53;77.57
12077;BME280;12420;42.676;23.262;2023-10-08T04:16:04;94924.72;;;12.58;77.23
12077;BME280;12420;42.676;23.262;2023-10-08T04:18:31;94926.31;;;12.53;78.57
12077;BME280;12420;42.676;23.262;2023-10-08T04:21:05;94931.75;;;12.46;78.21
12077;BME280;12420;42.676;23.262;2023-10-08T04:23:38;94917.75;;;12.25;78.37
12077;BME280;12420;42.676;23.262;2023-10-08T04:26:07;94928.63;;;12.36;78.62
12077;BME280;12420;42.676;23.262;2023-10-08T04:28:34;94924.78;;;12.26;78.56
12077;BME280;12420;42.676;23.262;2023-10-08T04:31:01;94936.00;;;12.33;78.14
12077;BME280;12420;42.676;23.262;2023-10-08T04:33:41;94870.94;;;11.89;77.45
12077;BME280;12420;42.676;23.262;2023-10-08T04:36:08;94943.34;;;12.31;78.33
12077;BME280;12420;42.676;23.262;2023-10-08T04:38:35;94894.25;;;12.12;78.43
12077;BME280;12420;42.676;23.262;2023-10-08T04:41:07;94932.13;;;12.23;79.41
12077;BME280;12420;42.676;23.262;2023-10-08T04:43:35;94921.97;;;12.12;79.42
12077;BME280;12420;42.676;23.262;2023-10-08T04:46:04;94936.19;;;12.22;80.02
12077;BME280;12420;42.676;23.262;2023-10-08T04:48:44;94939.50;;;12.21;80.01
12077;BME280;12420;42.676;23.262;2023-10-08T04:51:11;94925.19;;;12.16;79.26
12077;BME280;12420;42.676;23.262;2023-10-08T04:53:39;94936.31;;;12.30;79.27
12077;BME280;12420;42.676;23.262;2023-10-08T04:56:12;94934.84;;;12.29;78.81
12077;BME280;12420;42.676;23.262;2023-10-08T04:58:42;94921.81;;;12.24;78.36
12077;BME280;12420;42.676;23.262;2023-10-08T05:01:13;94913.78;;;12.20;78.64
12077;BME280;12420;42.676;23.262;2023-10-08T05:03:53;94950.66;;;12.34;78.38
12077;BME280;12420;42.676;23.262;2023-10-08T05:06:49;94915.31;;;12.34;78.15
12077;BME280;12420;42.676;23.262;2023-10-08T05:09:33;94943.31;;;12.63;77.50
12077;BME280;12420;42.676;23.262;2023-10-08T05:12:14;94944.03;;;12.50;79.01
12077;BME280;12420;42.676;23.262;2023-10-08T05:14:59;94912.19;;;12.25;78.75
12077;BME280;12420;42.676;23.262;2023-10-08T05:17:45;94950.44;;;12.58;78.93
12077;BME280;12420;42.676;23.262;2023-10-08T05:20:23;94938.25;;;12.48;78.11
12077;BME280;12420;42.676;23.262;2023-10-08T05:23:07;94937.22;;;12.78;76.79
12077;BME280;12420;42.676;23.262;2023-10-08T05:25:46;94947.47;;;12.96;76.27
12077;BME280;12420;42.676;23.262;2023-10-08T05:28:25;94890.66;;;12.71;75.67
12077;BME280;12420;42.676;23.262;2023-10-08T05:30:52;94918.84;;;12.88;73.89
12077;BME280;12420;42.676;23.262;2023-10-08T05:33:36;94944.03;;;13.03;74.85
12077;BME280;12420;42.676;23.262;2023-10-08T05:36:25;94942.53;;;13.16;74.10
12077;BME280;12420;42.676;23.262;2023-10-08T05:38:54;94932.81;;;13.36;74.29
12077;BME280;12420;42.676;23.262;2023-10-08T05:41:26;94962.56;;;13.62;74.64
12077;BME280;12420;42.676;23.262;2023-10-08T05:44:07;94969.38;;;13.74;73.70
12077;BME280;12420;42.676;23.262;2023-10-08T05:46:56;94966.88;;;13.84;73.52
12077;BME280;12420;42.676;23.262;2023-10-08T05:49:55;94929.81;;;13.68;71.30
12077;BME280;12420;42.676;23.262;2023-10-08T05:52:46;94974.03;;;13.93;70.61
12077;BME280;12420;42.676;23.262;2023-10-08T05:55:28;94954.34;;;13.90;71.08
12077;BME280;12420;42.676;23.262;2023-10-08T05:58:02;94978.41;;;14.22;70.01
12077;BME280;12420;42.676;23.262;2023-10-08T06:00:41;94947.81;;;14.09;71.08
12077;BME280;12420;42.676;23.262;2023-10-08T06:03:43;94981.31;;;14.38;69.89
12077;BME280;12420;42.676;23.262;2023-10-08T06:06:25;94986.25;;;14.52;68.65
12077;BME280;12420;42.676;23.262;2023-10-08T06:09:12;94974.66;;;14.62;68.08
12077;BME280;12420;42.676;23.262;2023-10-08T06:11:48;94969.94;;;14.77;67.49
12077;BME280;12420;42.676;23.262;2023-10-08T06:14:35;94972.53;;;15.04;66.63
12077;BME280;12420;42.676;23.262;2023-10-08T06:17:19;94964.94;;;15.12;66.51
12077;BME280;12420;42.676;23.262;2023-10-08T06:20:22;94973.44;;;15.35;66.74
12077;BME280;12420;42.676;23.262;2023-10-08T06:22:52;94971.25;;;15.49;66.96
12077;BME280;12420;42.676;23.262;2023-10-08T06:25:26;94947.09;;;15.59;65.61
12077;BME280;12420;42.676;23.262;2023-10-08T06:27:55;94971.09;;;15.55;64.59
12077;BME280;12420;42.676;23.262;2023-10-08T06:30:23;94969.69;;;15.33;66.15
12077;BME280;12420;42.676;23.262;2023-10-08T06:32:55;94977.44;;;15.55;67.00
12077;BME280;12420;42.676;23.262;2023-10-08T06:35:24;94962.56;;;15.60;66.40
12077;BME280;12420;42.676;23.262;2023-10-08T06:37:53;94958.16;;;15.73;66.03
12077;BME280;12420;42.676;23.262;2023-10-08T06:40:25;94967.31;;;15.81;66.40
12077;BME280;12420;42.676;23.262;2023-10-08T06:43:12;94962.31;;;15.95;65.58
12077;BME280;12420;42.676;23.262;2023-10-08T06:45:43;94968.13;;;16.20;65.32
12077;BME280;12420;42.676;23.262;2023-10-08T06:48:13;94935.19;;;16.26;65.18
12077;BME280;12420;42.676;23.262;2023-10-08T06:50:47;94921.97;;;16.34;64.02
12077;BME280;12420;42.676;23.262;2023-10-08T06:53:16;94938.91;;;16.59;62.61
12077;BME280;12420;42.676;23.262;2023-10-08T06:55:45;94960.53;;;16.89;63.68
12077;BME280;12420;42.676;23.262;2023-10-08T06:58:13;94966.25;;;17.07;60.67
12077;BME280;12420;42.676;23.262;2023-10-08T07:00:40;94932.31;;;17.10;53.63
12077;BME280;12420;42.676;23.262;2023-10-08T07:03:12;94960.25;;;17.82;45.35
12077;BME280;12420;42.676;23.262;2023-10-08T07:05:43;94959.34;;;18.12;43.50
12077;BME280;12420;42.676;23.262;2023-10-08T07:08:21;94968.63;;;18.47;40.91
12077;BME280;12420;42.676;23.262;2023-10-08T07:10:52;94954.81;;;18.66;40.17
12077;BME280;12420;42.676;23.262;2023-10-08T07:13:22;94959.59;;;18.99;38.32
12077;BME280;12420;42.676;23.262;2023-10-08T07:15:50;94964.41;;;19.23;37.41
12077;BME280;12420;42.676;23.262;2023-10-08T07:18:17;94952.94;;;19.29;36.70
12077;BME280;12420;42.676;23.262;2023-10-08T07:20:51;94925.34;;;19.35;37.08
12077;BME280;12420;42.676;23.262;2023-10-08T07:23:21;94953.78;;;19.66;35.59
12077;BME280;12420;42.676;23.262;2023-10-08T07:25:53;94956.03;;;19.85;34.22
12077;BME280;12420;42.676;23.262;2023-10-08T07:28:24;94953.75;;;20.01;34.00
12077;BME280;12420;42.676;23.262;2023-10-08T07:30:52;94965.09;;;20.21;32.77
12077;BME280;12420;42.676;23.262;2023-10-08T07:33:19;94952.13;;;20.35;33.03
12077;BME280;12420;42.676;23.262;2023-10-08T07:35:51;94946.84;;;20.39;32.62
12077;BME280;12420;42.676;23.262;2023-10-08T07:38:25;94946.06;;;20.66;32.91
12077;BME280;12420;42.676;23.262;2023-10-08T07:40:55;94942.84;;;20.89;32.15
12077;BME280;12420;42.676;23.262;2023-10-08T07:43:23;94951.44;;;20.81;31.66
12077;BME280;12420;42.676;23.262;2023-10-08T07:45:50;94926.09;;;20.81;31.93
12077;BME280;12420;42.676;23.262;2023-10-08T07:48:20;94942.16;;;20.98;32.04
12077;BME280;12420;42.676;23.262;2023-10-08T07:50:48;94949.88;;;21.07;32.42
12077;BME280;12420;42.676;23.262;2023-10-08T07:53:16;94924.81;;;21.11;31.97
12077;BME280;12420;42.676;23.262;2023-10-08T07:55:48;94917.56;;;21.08;32.32
12077;BME280;12420;42.676;23.262;2023-10-08T07:58:16;94922.63;;;21.19;31.94
12077;BME280;12420;42.676;23.262;2023-10-08T08:00:44;94934.59;;;21.00;32.09
12077;BME280;12420;42.676;23.262;2023-10-08T08:03:21;94947.34;;;21.11;32.47
12077;BME280;12420;42.676;23.262;2023-10-08T08:05:48;94933.41;;;21.03;32.24
12077;BME280;12420;42.676;23.262;2023-10-08T08:08:22;94908.97;;;21.06;32.29
12077;BME280;12420;42.676;23.262;2023-10-08T08:10:53;94920.81;;;20.95;32.32
12077;BME280;12420;42.676;23.262;2023-10-08T08:13:26;94843.41;;;20.47;32.48
12077;BME280;12420;42.676;23.262;2023-10-08T08:15:57;94915.47;;;20.89;32.40
12077;BME280;12420;42.676;23.262;2023-10-08T08:18:25;94912.22;;;20.93;32.31
12077;BME280;12420;42.676;23.262;2023-10-08T08:20:59;94867.94;;;20.84;32.42
12077;BME280;12420;42.676;23.262;2023-10-08T08:23:29;94918.78;;;21.15;32.25
12077;BME280;12420;42.676;23.262;2023-10-08T08:25:59;94910.78;;;21.40;32.26
12077;BME280;12420;42.676;23.262;2023-10-08T08:29:01;94917.00;;;21.39;31.70
12077;BME280;12420;42.676;23.262;2023-10-08T08:31:40;94904.13;;;21.45;31.89
12077;BME280;12420;42.676;23.262;2023-10-08T08:34:12;94939.06;;;21.33;32.13
12077;BME280;12420;42.676;23.262;2023-10-08T08:36:45;94873.69;;;20.76;32.34
12077;BME280;12420;42.676;23.262;2023-10-08T08:39:14;94904.84;;;21.07;32.78
12077;BME280;12420;42.676;23.262;2023-10-08T08:41:59;94899.50;;;21.31;33.17
12077;BME280;12420;42.676;23.262;2023-10-08T08:44:27;94885.00;;;21.44;32.53
12077;BME280;12420;42.676;23.262;2023-10-08T08:46:58;94883.34;;;21.60;32.21
12077;BME280;12420;42.676;23.262;2023-10-08T08:49:26;94903.19;;;21.82;31.85
12077;BME280;12420;42.676;23.262;2023-10-08T08:51:55;94896.44;;;22.06;31.42
12077;BME280;12420;42.676;23.262;2023-10-08T08:54:26;94895.78;;;22.18;31.06
12077;BME280;12420;42.676;23.262;2023-10-08T08:56:57;94907.06;;;22.18;31.60
12077;BME280;12420;42.676;23.262;2023-10-08T08:59:27;94891.88;;;22.42;31.59
12077;BME280;12420;42.676;23.262;2023-10-08T09:01:57;94873.19;;;22.37;31.27
12077;BME280;12420;42.676;23.262;2023-10-08T09:04:28;94883.03;;;22.58;30.96
12077;BME280;12420;42.676;23.262;2023-10-08T09:06:58;94891.06;;;22.51;31.07
12077;BME280;12420;42.676;23.262;2023-10-08T09:09:32;94900.75;;;22.48;30.91
12077;BME280;12420;42.676;23.262;2023-10-08T09:12:00;94890.38;;;22.41;31.16
12077;BME280;12420;42.676;23.262;2023-10-08T09:14:30;94892.41;;;22.50;30.64
12077;BME280;12420;42.676;23.262;2023-10-08T09:16:57;94886.78;;;22.50;30.96
12077;BME280;12420;42.676;23.262;2023-10-08T09:19:26;94879.69;;;22.71;30.79
12077;BME280;12420;42.676;23.262;2023-10-08T09:22:00;94883.72;;;22.68;31.06
12077;BME280;12420;42.676;23.262;2023-10-08T09:24:29;94881.53;;;22.57;31.27
12077;BME280;12420;42.676;23.262;2023-10-08T09:26:55;94878.34;;;22.72;31.52
12077;BME280;12420;42.676;23.262;2023-10-08T09:29:25;94869.00;;;22.91;31.18
12077;BME280;12420;42.676;23.262;2023-10-08T09:31:53;94874.19;;;22.73;30.58
12077;BME280;12420;42.676;23.262;2023-10-08T09:34:21;94881.19;;;22.72;31.10
12077;BME280;12420;42.676;23.262;2023-10-08T09:36:48;94869.75;;;22.91;31.43
12077;BME280;12420;42.676;23.262;2023-10-08T09:39:15;94870.59;;;23.04;30.41
12077;BME280;12420;42.676;23.262;2023-10-08T09:41:53;94868.81;;;23.20;30.24
12077;BME280;12420;42.676;23.262;2023-10-08T09:44:21;94856.91;;;23.22;30.30
12077;BME280;12420;42.676;23.262;2023-10-08T09:46:53;94848.09;;;23.27;30.32
12077;BME280;12420;42.676;23.262;2023-10-08T09:49:27;94858.06;;;23.28;30.11
12077;BME280;12420;42.676;23.262;2023-10-08T09:52:02;94867.88;;;23.27;29.99
12077;BME280;12420;42.676;23.262;2023-10-08T09:54:36;94856.78;;;22.76;30.80
12077;BME280;12420;42.676;23.262;2023-10-08T09:57:05;94866.66;;;22.87;31.14
12077;BME280;12420;42.676;23.262;2023-10-08T09:59:33;94850.25;;;22.52;31.29
12077;BME280;12420;42.676;23.262;2023-10-08T10:02:02;94839.63;;;22.41;31.57
12077;BME280;12420;42.676;23.262;2023-10-08T10:04:30;94841.38;;;22.46;31.21
12077;BME280;12420;42.676;23.262;2023-10-08T10:06:58;94855.34;;;22.44;31.99
12077;BME280;12420;42.676;23.262;2023-10-08T10:09:25;94860.16;;;22.32;32.23
12077;BME280;12420;42.676;23.262;2023-10-08T10:11:54;94845.66;;;22.16;33.07
12077;BME280;12420;42.676;23.262;2023-10-08T10:14:23;94817.69;;;21.99;32.66
12077;BME280;12420;42.676;23.262;2023-10-08T10:19:50;94828.63;;;22.45;31.92
12077;BME280;12420;42.676;23.262;2023-10-08T10:22:27;94827.53;;;22.50;31.36
12077;BME280;12420;42.676;23.262;2023-10-08T10:24:55;94828.50;;;22.65;31.18
12077;BME280;12420;42.676;23.262;2023-10-08T10:27:23;94826.34;;;22.75;31.16
12077;BME280;12420;42.676;23.262;2023-10-08T10:29:50;94827.69;;;22.74;31.51
12077;BME280;12420;42.676;23.262;2023-10-08T10:32:18;94818.56;;;22.85;31.48
12077;BME280;12420;42.676;23.262;2023-10-08T10:34:46;94815.22;;;22.99;31.69
12077;BME280;12420;42.676;23.262;2023-10-08T10:37:19;94804.44;;;22.64;32.66
12077;BME280;12420;42.676;23.262;2023-10-08T10:39:52;94812.25;;;22.75;33.07
12077;BME280;12420;42.676;23.262;2023-10-08T10:42:20;94816.00;;;22.68;33.11
12077;BME280;12420;42.676;23.262;2023-10-08T10:44:47;94810.97;;;22.45;33.65
12077;BME280;12420;42.676;23.262;2023-10-08T10:47:16;94799.00;;;22.56;34.06
12077;BME280;12420;42.676;23.262;2023-10-08T10:49:54;94806.59;;;22.53;34.20
12077;BME280;12420;42.676;23.262;2023-10-08T10:52:41;94765.75;;;22.33;34.71
12077;BME280;12420;42.676;23.262;2023-10-08T10:55:18;94759.56;;;22.25;34.87
12077;BME280;12420;42.676;23.262;2023-10-08T10:57:50;94783.50;;;22.45;34.94
12077;BME280;12420;42.676;23.262;2023-10-08T11:00:22;94788.84;;;22.41;35.31
12077;BME280;12420;42.676;23.262;2023-10-08T11:03:05;94752.47;;;22.24;35.48
12077;BME280;12420;42.676;23.262;2023-10-08T11:05:44;94769.78;;;22.51;35.14
12077;BME280;12420;42.676;23.262;2023-10-08T11:08:15;94777.44;;;22.61;34.99
12077;BME280;12420;42.676;23.262;2023-10-08T11:10:44;94750.53;;;22.48;35.05
12077;BME280;12420;42.676;23.262;2023-10-08T11:13:16;94760.31;;;22.68;34.84
12077;BME280;12420;42.676;23.262;2023-10-08T11:15:44;94751.50;;;22.74;34.66
12077;BME280;12420;42.676;23.262;2023-10-08T11:18:17;94724.84;;;22.65;34.76
12077;BME280;12420;42.676;23.262;2023-10-08T11:20:46;94726.25;;;22.76;34.61
12077;BME280;12420;42.676;23.262;2023-10-08T11:23:32;94757.09;;;23.17;34.65
12077;BME280;12420;42.676;23.262;2023-10-08T11:26:01;94753.16;;;23.22;35.03
12077;BME280;12420;42.676;23.262;2023-10-08T11:28:31;94755.81;;;23.42;35.01
12077;BME280;12420;42.676;23.262;2023-10-08T11:31:00;94746.59;;;23.53;34.99
12077;BME280;12420;42.676;23.262;2023-10-08T11:33:34;94756.81;;;23.58;35.01
12077;BME280;12420;42.676;23.262;2023-10-08T11:36:04;94769.81;;;23.51;34.99
12077;BME280;12420;42.676;23.262;2023-10-08T11:38:38;94720.00;;;23.11;35.05
12077;BME280;12420;42.676;23.262;2023-10-08T11:41:10;94733.66;;;23.26;35.05
12077;BME280;12420;42.676;23.262;2023-10-08T11:43:49;94754.22;;;23.38;35.10
12077;BME280;12420;42.676;23.262;2023-10-08T11:46:23;94764.88;;;23.28;35.32
12077;BME280;12420;42.676;23.262;2023-10-08T11:48:53;94760.66;;;23.17;35.30
12077;BME280;12420;42.676;23.262;2023-10-08T11:51:24;94754.66;;;23.23;36.02
12077;BME280;12420;42.676;23.262;2023-10-08T11:53:53;94770.25;;;23.24;35.88
12077;BME280;12420;42.676;23.262;2023-10-08T11:56:19;94739.84;;;23.01;36.00
12077;BME280;12420;42.676;23.262;2023-10-08T11:58:48;94761.50;;;23.20;36.00
12077;BME280;12420;42.676;23.262;2023-10-08T12:01:18;94756.41;;;23.28;36.27
12077;BME280;12420;42.676;23.262;2023-10-08T12:03:45;94751.19;;;23.13;36.10
12077;BME280;12420;42.676;23.262;2023-10-08T12:06:15;94753.56;;;23.28;36.39
12077;BME280;12420;42.676;23.262;2023-10-08T12:08:45;94746.84;;;23.33;35.99
12077;BME280;12420;42.676;23.262;2023-10-08T12:11:13;94745.97;;;23.43;35.70
12077;BME280;12420;42.676;23.262;2023-10-08T12:13:40;94757.94;;;23.65;35.68
12077;BME280;12420;42.676;23.262;2023-10-08T12:16:11;94736.56;;;23.73;34.65
12077;BME280;12420;42.676;23.262;2023-10-08T12:18:46;94747.41;;;23.77;34.81
12077;BME280;12420;42.676;23.262;2023-10-08T12:21:19;94740.63;;;23.94;34.66
12077;BME280;12420;42.676;23.262;2023-10-08T12:23:48;94764.09;;;24.08;35.18
12077;BME280;12420;42.676;23.262;2023-10-08T12:26:15;94681.75;;;23.43;35.21
12077;BME280;12420;42.676;23.262;2023-10-08T12:28:44;94756.00;;;24.02;35.11
12077;BME280;12420;42.676;23.262;2023-10-08T12:31:13;94761.13;;;23.71;35.46
12077;BME280;12420;42.676;23.262;2023-10-08T12:33:42;94755.47;;;23.59;35.80
12077;BME280;12420;42.676;23.262;2023-10-08T12:36:10;94756.03;;;23.46;36.33
12077;BME280;12420;42.676;23.262;2023-10-08T12:38:38;94755.94;;;23.44;36.30
12077;BME280;12420;42.676;23.262;2023-10-08T12:41:08;94763.41;;;23.39;36.49
12077;BME280;12420;42.676;23.262;2023-10-08T12:43:38;94730.34;;;23.30;36.68
12077;BME280;12420;42.676;23.262;2023-10-08T12:46:08;94739.47;;;23.40;36.75
12077;BME280;12420;42.676;23.262;2023-10-08T12:48:41;94742.91;;;23.38;36.84
12077;BME280;12420;42.676;23.262;2023-10-08T12:51:09;94734.81;;;23.45;36.80
12077;BME280;12420;42.676;23.262;2023-10-08T12:53:36;94741.41;;;23.37;36.96
12077;BME280;12420;42.676;23.262;2023-10-08T12:56:04;94729.03;;;23.43;36.97
12077;BME280;12420;42.676;23.262;2023-10-08T12:58:35;94737.88;;;23.49;37.11
12077;BME280;12420;42.676;23.262;2023-10-08T13:01:07;94733.84;;;23.52;36.88
12077;BME280;12420;42.676;23.262;2023-10-08T13:03:35;94728.94;;;23.64;36.49
12077;BME280;12420;42.676;23.262;2023-10-08T13:06:07;94724.91;;;23.79;36.17
12077;BME280;12420;42.676;23.262;2023-10-08T13:08:37;94726.63;;;23.84;36.48
12077;BME280;12420;42.676;23.262;2023-10-08T13:11:04;94712.97;;;23.57;36.33
12077;BME280;12420;42.676;23.262;2023-10-08T13:13:32;94728.69;;;23.72;35.78
12077;BME280;12420;42.676;23.262;2023-10-08T13:16:00;94727.34;;;23.61;36.12
12077;BME280;12420;42.676;23.262;2023-10-08T13:18:32;94720.81;;;23.47;36.72